sensor_id;sensor_type;location;lat;lon;timestamp;pressure;altitude;pressure_sealevel;temperature
68510;BMP180;55512;50.102;19.958;2022-11-20T00:01:23;98311.40;;;-3.90
68510;BMP180;55512;50.102;19.958;2022-11-20T00:03:52;98316.60;;;-3.90
68510;BMP180;55512;50.102;19.958;2022-11-20T00:06:20;98317.60;;;-3.90
68510;BMP180;55512;50.102;19.958;2022-11-20T00:08:46;98315.40;;;-3.90
68510;BMP180;55512;50.102;19.958;2022-11-20T00:11:19;98314.60;;;-3.90
68510;BMP180;55512;50.102;19.958;2022-11-20T00:13:50;98314.40;;;-3.90
68510;BMP180;55512;50.102;19.958;2022-11-20T00:16:21;98300.00;;;-3.90
68510;BMP180;55512;50.102;19.958;2022-11-20T00:18:47;98300.00;;;-3.98
68510;BMP180;55512;50.102;19.958;2022-11-20T00:21:19;98298.20;;;-4.00
68510;BMP180;55512;50.102;19.958;2022-11-20T00:23:46;98300.20;;;-4.10
68510;BMP180;55512;50.102;19.958;2022-11-20T00:26:17;98301.20;;;-4.10
68510;BMP180;55512;50.102;19.958;2022-11-20T00:28:48;98298.20;;;-4.10
68510;BMP180;55512;50.102;19.958;2022-11-20T00:31:15;98296.80;;;-4.14
68510;BMP180;55512;50.102;19.958;2022-11-20T00:33:42;98292.00;;;-4.20
68510;BMP180;55512;50.102;19.958;2022-11-20T00:36:17;98292.80;;;-4.20
68510;BMP180;55512;50.102;19.958;2022-11-20T00:38:44;98295.80;;;-4.20
68510;BMP180;55512;50.102;19.958;2022-11-20T00:41:14;98298.20;;;-4.20
68510;BMP180;55512;50.102;19.958;2022-11-20T00:43:40;98298.40;;;-4.20
68510;BMP180;55512;50.102;19.958;2022-11-20T00:46:16;98298.20;;;-4.20
68510;BMP180;55512;50.102;19.958;2022-11-20T00:48:43;98299.80;;;-4.20
68510;BMP180;55512;50.102;19.958;2022-11-20T00:51:11;98297.20;;;-4.20
68510;BMP180;55512;50.102;19.958;2022-11-20T00:53:37;98292.80;;;-4.20
68510;BMP180;55512;50.102;19.958;2022-11-20T00:56:06;98284.80;;;-4.20
68510;BMP180;55512;50.102;19.958;2022-11-20T00:58:38;98282.80;;;-4.20
68510;BMP180;55512;50.102;19.958;2022-11-20T01:01:13;98274.40;;;-4.26
68510;BMP180;55512;50.102;19.958;2022-11-20T01:03:42;98268.00;;;-4.30
68510;BMP180;55512;50.102;19.958;2022-11-20T01:06:21;98264.20;;;-4.30
68510;BMP180;55512;50.102;19.958;2022-11-20T01:08:48;98272.60;;;-4.30
68510;BMP180;55512;50.102;19.958;2022-11-20T01:11:18;98275.20;;;-4.32
68510;BMP180;55512;50.102;19.958;2022-11-20T01:13:46;98269.60;;;-4.40
68510;BMP180;55512;50.102;19.958;2022-11-20T01:16:18;98274.80;;;-4.40
68510;BMP180;55512;50.102;19.958;2022-11-20T01:18:48;98274.60;;;-4.40
68510;BMP180;55512;50.102;19.958;2022-11-20T01:21:21;98267.40;;;-4.50
68510;BMP180;55512;50.102;19.958;2022-11-20T01:23:49;98267.60;;;-4.50
68510;BMP180;55512;50.102;19.958;2022-11-20T01:26:21;98257.00;;;-4.50
68510;BMP180;55512;50.102;19.958;2022-11-20T01:28:47;98252.20;;;-4.50
68510;BMP180;55512;50.102;19.958;2022-11-20T01:31:20;98251.60;;;-4.50
68510;BMP180;55512;50.102;19.958;2022-11-20T01:33:49;98248.20;;;-4.50
68510;BMP180;55512;50.102;19.958;2022-11-20T01:36:18;98247.80;;;-4.50
68510;BMP180;55512;50.102;19.958;2022-11-20T01:38:44;98253.40;;;-4.50
68510;BMP180;55512;50.102;19.958;2022-11-20T01:41:12;98252.60;;;-4.50
68510;BMP180;55512;50.102;19.958;2022-11-20T01:44:02;98254.20;;;-4.50
68510;BMP180;55512;50.102;19.958;2022-11-20T01:46:35;98254.00;;;-4.50
68510;BMP180;55512;50.102;19.958;2022-11-20T01:49:21;98242.20;;;-4.50
68510;BMP180;55512;50.102;19.958;2022-11-20T01:52:04;98244.60;;;-4.50
68510;BMP180;55512;50.102;19.958;2022-11-20T01:54:39;98249.60;;;-4.56
68510;BMP180;55512;50.102;19.958;2022-11-20T01:57:10;98257.80;;;-4.60
68510;BMP180;55512;50.102;19.958;2022-11-20T01:59:45;98252.60;;;-4.60
68510;BMP180;55512;50.102;19.958;2022-11-20T02:02:13;98248.20;;;-4.66
68510;BMP180;55512;50.102;19.958;2022-11-20T02:04:39;98248.20;;;-4.70
68510;BMP180;55512;50.102;19.958;2022-11-20T02:07:05;98250.40;;;-4.70
68510;BMP180;55512;50.102;19.958;2022-11-20T02:09:31;98252.60;;;-4.70
68510;BMP180;55512;50.102;19.958;2022-11-20T02:11:58;98247.60;;;-4.70
68510;BMP180;55512;50.102;19.958;2022-11-20T02:14:25;98249.00;;;-4.70
68510;BMP180;55512;50.102;19.958;2022-11-20T02:16:51;98246.60;;;-4.70
68510;BMP180;55512;50.102;19.958;2022-11-20T02:19:31;98254.60;;;-4.74
68510;BMP180;55512;50.102;19.958;2022-11-20T02:22:19;98271.00;;;-4.74
68510;BMP180;55512;50.102;19.958;2022-11-20T02:24:49;98264.40;;;-4.74
68510;BMP180;55512;50.102;19.958;2022-11-20T02:27:17;98260.00;;;-4.80
68510;BMP180;55512;50.102;19.958;2022-11-20T02:29:57;98265.20;;;-4.80
68510;BMP180;55512;50.102;19.958;2022-11-20T02:32:36;98268.40;;;-4.80
68510;BMP180;55512;50.102;19.958;2022-11-20T02:37:59;98262.00;;;-4.90
68510;BMP180;55512;50.102;19.958;2022-11-20T02:40:26;98262.80;;;-4.90
68510;BMP180;55512;50.102;19.958;2022-11-20T02:42:53;98258.00;;;-4.98
68510;BMP180;55512;50.102;19.958;2022-11-20T02:45:19;98264.20;;;-5.00
68510;BMP180;55512;50.102;19.958;2022-11-20T02:47:44;98261.60;;;-5.00
68510;BMP180;55512;50.102;19.958;2022-11-20T02:50:13;98267.80;;;-5.02
68510;BMP180;55512;50.102;19.958;2022-11-20T02:52:38;98264.60;;;-5.10
68510;BMP180;55512;50.102;19.958;2022-11-20T02:55:04;98259.40;;;-5.16
68510;BMP180;55512;50.102;19.958;2022-11-20T02:57:30;98261.20;;;-5.14
68510;BMP180;55512;50.102;19.958;2022-11-20T02:59:55;98250.80;;;-5.10
68510;BMP180;55512;50.102;19.958;2022-11-20T03:02:21;98251.00;;;-5.10
68510;BMP180;55512;50.102;19.958;2022-11-20T03:04:46;98250.20;;;-5.00
68510;BMP180;55512;50.102;19.958;2022-11-20T03:07:12;98253.80;;;-4.98
68510;BMP180;55512;50.102;19.958;2022-11-20T03:09:37;98253.80;;;-4.90
68510;BMP180;55512;50.102;19.958;2022-11-20T03:12:03;98254.00;;;-4.80
68510;BMP180;55512;50.102;19.958;2022-11-20T03:14:29;98249.00;;;-4.80
68510;BMP180;55512;50.102;19.958;2022-11-20T03:16:55;98254.60;;;-4.80
68510;BMP180;55512;50.102;19.958;2022-11-20T03:19:21;98247.80;;;-4.90
68510;BMP180;55512;50.102;19.958;2022-11-20T03:21:46;98249.80;;;-4.90
68510;BMP180;55512;50.102;19.958;2022-11-20T03:24:13;98244.80;;;-5.00
68510;BMP180;55512;50.102;19.958;2022-11-20T03:26:39;98243.60;;;-5.00
68510;BMP180;55512;50.102;19.958;2022-11-20T03:29:05;98241.80;;;-5.10
68510;BMP180;55512;50.102;19.958;2022-11-20T03:31:34;98240.00;;;-5.10
68510;BMP180;55512;50.102;19.958;2022-11-20T03:34:00;98239.60;;;-5.10
68510;BMP180;55512;50.102;19.958;2022-11-20T03:36:29;98236.00;;;-5.20
68510;BMP180;55512;50.102;19.958;2022-11-20T03:38:56;98236.00;;;-5.20
68510;BMP180;55512;50.102;19.958;2022-11-20T03:41:41;98238.80;;;-5.30
68510;BMP180;55512;50.102;19.958;2022-11-20T03:44:10;98231.00;;;-5.30
68510;BMP180;55512;50.102;19.958;2022-11-20T03:46:36;98229.80;;;-5.38
68510;BMP180;55512;50.102;19.958;2022-11-20T03:49:02;98223.20;;;-5.40
68510;BMP180;55512;50.102;19.958;2022-11-20T03:51:34;98223.00;;;-5.32
68510;BMP180;55512;50.102;19.958;2022-11-20T03:54:07;98225.40;;;-5.30
68510;BMP180;55512;50.102;19.958;2022-11-20T03:56:36;98226.00;;;-5.26
68510;BMP180;55512;50.102;19.958;2022-11-20T03:59:03;98224.60;;;-5.20
68510;BMP180;55512;50.102;19.958;2022-11-20T04:01:33;98224.80;;;-5.20
68510;BMP180;55512;50.102;19.958;2022-11-20T04:03:59;98223.60;;;-5.20
68510;BMP180;55512;50.102;19.958;2022-11-20T04:06:28;98224.80;;;-5.20
68510;BMP180;55512;50.102;19.958;2022-11-20T04:08:56;98222.80;;;-5.18
68510;BMP180;55512;50.102;19.958;2022-11-20T04:11:25;98226.00;;;-5.16
68510;BMP180;55512;50.102;19.958;2022-11-20T04:13:54;98226.00;;;-5.10
68510;BMP180;55512;50.102;19.958;2022-11-20T04:16:22;98224.20;;;-5.18
68510;BMP180;55512;50.102;19.958;2022-11-20T04:18:57;98220.40;;;-5.20
68510;BMP180;55512;50.102;19.958;2022-11-20T04:21:25;98220.60;;;-5.20
68510;BMP180;55512;50.102;19.958;2022-11-20T04:23:52;98216.00;;;-5.20
68510;BMP180;55512;50.102;19.958;2022-11-20T04:26:19;98218.40;;;-5.20
68510;BMP180;55512;50.102;19.958;2022-11-20T04:28:45;98217.60;;;-5.20
68510;BMP180;55512;50.102;19.958;2022-11-20T04:31:16;98214.80;;;-5.20
68510;BMP180;55512;50.102;19.958;2022-11-20T04:33:42;98215.80;;;-5.20
68510;BMP180;55512;50.102;19.958;2022-11-20T04:36:19;98209.40;;;-5.12
68510;BMP180;55512;50.102;19.958;2022-11-20T04:38:45;98214.00;;;-5.20
68510;BMP180;55512;50.102;19.958;2022-11-20T04:41:16;98207.00;;;-5.20
68510;BMP180;55512;50.102;19.958;2022-11-20T04:43:47;98208.60;;;-5.20
68510;BMP180;55512;50.102;19.958;2022-11-20T04:46:14;98207.00;;;-5.28
68510;BMP180;55512;50.102;19.958;2022-11-20T04:48:40;98202.80;;;-5.30
68510;BMP180;55512;50.102;19.958;2022-11-20T04:51:05;98203.20;;;-5.40
68510;BMP180;55512;50.102;19.958;2022-11-20T04:53:31;98196.40;;;-5.42
68510;BMP180;55512;50.102;19.958;2022-11-20T04:56:02;98195.00;;;-5.50
68510;BMP180;55512;50.102;19.958;2022-11-20T04:58:29;98198.40;;;-5.52
68510;BMP180;55512;50.102;19.958;2022-11-20T05:01:09;98187.20;;;-5.58
68510;BMP180;55512;50.102;19.958;2022-11-20T05:03:35;98191.20;;;-5.60
68510;BMP180;55512;50.102;19.958;2022-11-20T05:06:02;98190.20;;;-5.60
68510;BMP180;55512;50.102;19.958;2022-11-20T05:08:30;98194.00;;;-5.60
68510;BMP180;55512;50.102;19.958;2022-11-20T05:11:13;98198.00;;;-5.62
68510;BMP180;55512;50.102;19.958;2022-11-20T05:13:40;98198.60;;;-5.70
68510;BMP180;55512;50.102;19.958;2022-11-20T05:16:09;98196.00;;;-5.70
68510;BMP180;55512;50.102;19.958;2022-11-20T05:18:36;98194.20;;;-5.62
68510;BMP180;55512;50.102;19.958;2022-11-20T05:21:02;98194.00;;;-5.60
68510;BMP180;55512;50.102;19.958;2022-11-20T05:23:30;98199.40;;;-5.60
68510;BMP180;55512;50.102;19.958;2022-11-20T05:25:57;98199.80;;;-5.50
68510;BMP180;55512;50.102;19.958;2022-11-20T05:28:24;98194.20;;;-5.50
68510;BMP180;55512;50.102;19.958;2022-11-20T05:30:50;98191.80;;;-5.50
68510;BMP180;55512;50.102;19.958;2022-11-20T05:33:17;98187.00;;;-5.50
68510;BMP180;55512;50.102;19.958;2022-11-20T05:35:43;98189.20;;;-5.50
68510;BMP180;55512;50.102;19.958;2022-11-20T05:38:09;98180.60;;;-5.50
68510;BMP180;55512;50.102;19.958;2022-11-20T05:40:34;98182.20;;;-5.50
68510;BMP180;55512;50.102;19.958;2022-11-20T05:43:00;98187.60;;;-5.54
68510;BMP180;55512;50.102;19.958;2022-11-20T05:45:26;98181.80;;;-5.60
68510;BMP180;55512;50.102;19.958;2022-11-20T05:47:52;98181.60;;;-5.60
68510;BMP180;55512;50.102;19.958;2022-11-20T05:50:17;98181.60;;;-5.60
68510;BMP180;55512;50.102;19.958;2022-11-20T05:52:43;98176.60;;;-5.62
68510;BMP180;55512;50.102;19.958;2022-11-20T05:55:09;98177.00;;;-5.66
68510;BMP180;55512;50.102;19.958;2022-11-20T05:57:34;98171.40;;;-5.70
68510;BMP180;55512;50.102;19.958;2022-11-20T06:00:00;98165.20;;;-5.70
68510;BMP180;55512;50.102;19.958;2022-11-20T06:02:25;98173.40;;;-5.70
68510;BMP180;55512;50.102;19.958;2022-11-20T06:04:51;98170.40;;;-5.70
68510;BMP180;55512;50.102;19.958;2022-11-20T06:07:16;98170.80;;;-5.60
68510;BMP180;55512;50.102;19.958;2022-11-20T06:09:42;98172.00;;;-5.60
68510;BMP180;55512;50.102;19.958;2022-11-20T06:12:07;98169.60;;;-5.60
68510;BMP180;55512;50.102;19.958;2022-11-20T06:14:33;98170.20;;;-5.60
68510;BMP180;55512;50.102;19.958;2022-11-20T06:17:00;98176.20;;;-5.60
68510;BMP180;55512;50.102;19.958;2022-11-20T06:19:25;98174.00;;;-5.60
68510;BMP180;55512;50.102;19.958;2022-11-20T06:21:51;98177.80;;;-5.60
68510;BMP180;55512;50.102;19.958;2022-11-20T06:24:16;98174.80;;;-5.60
68510;BMP180;55512;50.102;19.958;2022-11-20T06:26:43;98173.60;;;-5.60
68510;BMP180;55512;50.102;19.958;2022-11-20T06:29:08;98170.80;;;-5.62
68510;BMP180;55512;50.102;19.958;2022-11-20T06:31:34;98167.80;;;-5.68
68510;BMP180;55512;50.102;19.958;2022-11-20T06:34:04;98166.40;;;-5.70
68510;BMP180;55512;50.102;19.958;2022-11-20T06:36:31;98163.80;;;-5.70
68510;BMP180;55512;50.102;19.958;2022-11-20T06:38:57;98170.80;;;-5.76
68510;BMP180;55512;50.102;19.958;2022-11-20T06:41:23;98165.00;;;-5.80
68510;BMP180;55512;50.102;19.958;2022-11-20T06:43:49;98158.40;;;-5.80
68510;BMP180;55512;50.102;19.958;2022-11-20T06:46:16;98154.00;;;-5.80
68510;BMP180;55512;50.102;19.958;2022-11-20T06:48:43;98155.20;;;-5.70
68510;BMP180;55512;50.102;19.958;2022-11-20T06:51:09;98156.40;;;-5.64
68510;BMP180;55512;50.102;19.958;2022-11-20T06:53:35;98155.40;;;-5.58
68510;BMP180;55512;50.102;19.958;2022-11-20T06:56:02;98154.20;;;-5.50
68510;BMP180;55512;50.102;19.958;2022-11-20T06:58:29;98160.20;;;-5.40
68510;BMP180;55512;50.102;19.958;2022-11-20T07:01:10;98159.00;;;-5.32
68510;BMP180;55512;50.102;19.958;2022-11-20T07:03:37;98158.40;;;-5.28
68510;BMP180;55512;50.102;19.958;2022-11-20T07:06:04;98160.00;;;-5.20
68510;BMP180;55512;50.102;19.958;2022-11-20T07:08:31;98157.20;;;-5.14
68510;BMP180;55512;50.102;19.958;2022-11-20T07:11:02;98162.80;;;-5.10
68510;BMP180;55512;50.102;19.958;2022-11-20T07:13:29;98159.20;;;-5.10
68510;BMP180;55512;50.102;19.958;2022-11-20T07:15:59;98154.60;;;-5.10
68510;BMP180;55512;50.102;19.958;2022-11-20T07:18:25;98164.20;;;-5.08
68510;BMP180;55512;50.102;19.958;2022-11-20T07:20:50;98168.80;;;-5.00
68510;BMP180;55512;50.102;19.958;2022-11-20T07:23:16;98172.20;;;-5.00
68510;BMP180;55512;50.102;19.958;2022-11-20T07:25:42;98170.80;;;-5.00
68510;BMP180;55512;50.102;19.958;2022-11-20T07:28:07;98176.00;;;-4.92
68510;BMP180;55512;50.102;19.958;2022-11-20T07:30:33;98176.60;;;-4.90
68510;BMP180;55512;50.102;19.958;2022-11-20T07:32:58;98176.40;;;-4.84
68510;BMP180;55512;50.102;19.958;2022-11-20T07:35:24;98176.60;;;-4.80
68510;BMP180;55512;50.102;19.958;2022-11-20T07:37:50;98182.20;;;-4.78
68510;BMP180;55512;50.102;19.958;2022-11-20T07:40:16;98182.00;;;-4.68
68510;BMP180;55512;50.102;19.958;2022-11-20T07:42:54;98185.40;;;-4.52
68510;BMP180;55512;50.102;19.958;2022-11-20T07:45:22;98196.20;;;-4.40
68510;BMP180;55512;50.102;19.958;2022-11-20T07:47:48;98204.20;;;-4.30
68510;BMP180;55512;50.102;19.958;2022-11-20T07:50:14;98200.00;;;-4.12
68510;BMP180;55512;50.102;19.958;2022-11-20T07:52:42;98202.80;;;-4.00
68510;BMP180;55512;50.102;19.958;2022-11-20T07:55:10;98207.20;;;-3.84
68510;BMP180;55512;50.102;19.958;2022-11-20T07:57:35;98210.40;;;-3.80
68510;BMP180;55512;50.102;19.958;2022-11-20T08:00:02;98207.20;;;-3.70
68510;BMP180;55512;50.102;19.958;2022-11-20T08:02:28;98203.00;;;-3.68
68510;BMP180;55512;50.102;19.958;2022-11-20T08:04:53;98204.20;;;-3.60
68510;BMP180;55512;50.102;19.958;2022-11-20T08:07:19;98204.40;;;-3.60
68510;BMP180;55512;50.102;19.958;2022-11-20T08:09:44;98210.00;;;-3.60
68510;BMP180;55512;50.102;19.958;2022-11-20T08:12:19;98211.60;;;-3.54
68510;BMP180;55512;50.102;19.958;2022-11-20T08:15:05;98209.20;;;-3.50
68510;BMP180;55512;50.102;19.958;2022-11-20T08:17:31;98208.80;;;-3.50
68510;BMP180;55512;50.102;19.958;2022-11-20T08:19:56;98212.60;;;-3.40
68510;BMP180;55512;50.102;19.958;2022-11-20T08:22:22;98212.20;;;-3.40
68510;BMP180;55512;50.102;19.958;2022-11-20T08:24:47;98207.40;;;-3.40
68510;BMP180;55512;50.102;19.958;2022-11-20T08:27:13;98203.80;;;-3.40
68510;BMP180;55512;50.102;19.958;2022-11-20T08:29:39;98204.40;;;-3.40
68510;BMP180;55512;50.102;19.958;2022-11-20T08:32:04;98201.20;;;-3.32
68510;BMP180;55512;50.102;19.958;2022-11-20T08:34:30;98200.80;;;-3.30
68510;BMP180;55512;50.102;19.958;2022-11-20T08:36:55;98205.20;;;-3.20
68510;BMP180;55512;50.102;19.958;2022-11-20T08:39:21;98200.20;;;-3.20
68510;BMP180;55512;50.102;19.958;2022-11-20T08:41:46;98201.00;;;-3.10
68510;BMP180;55512;50.102;19.958;2022-11-20T08:44:11;98196.80;;;-3.00
68510;BMP180;55512;50.102;19.958;2022-11-20T08:46:40;98197.80;;;-3.00
68510;BMP180;55512;50.102;19.958;2022-11-20T08:49:08;98196.00;;;-3.00
68510;BMP180;55512;50.102;19.958;2022-11-20T08:51:35;98193.20;;;-2.90
68510;BMP180;55512;50.102;19.958;2022-11-20T08:54:01;98191.20;;;-2.90
68510;BMP180;55512;50.102;19.958;2022-11-20T08:56:27;98191.40;;;-2.82
68510;BMP180;55512;50.102;19.958;2022-11-20T08:58:53;98185.40;;;-2.78
68510;BMP180;55512;50.102;19.958;2022-11-20T09:01:20;98181.00;;;-2.70
68510;BMP180;55512;50.102;19.958;2022-11-20T09:03:47;98181.40;;;-2.64
68510;BMP180;55512;50.102;19.958;2022-11-20T09:06:13;98181.60;;;-2.60
68510;BMP180;55512;50.102;19.958;2022-11-20T09:08:39;98181.00;;;-2.60
68510;BMP180;55512;50.102;19.958;2022-11-20T09:11:06;98187.20;;;-2.60
68510;BMP180;55512;50.102;19.958;2022-11-20T09:13:33;98180.20;;;-2.60
68510;BMP180;55512;50.102;19.958;2022-11-20T09:16:06;98183.60;;;-2.50
68510;BMP180;55512;50.102;19.958;2022-11-20T09:18:33;98181.40;;;-2.40
68510;BMP180;55512;50.102;19.958;2022-11-20T09:21:03;98181.00;;;-2.30
68510;BMP180;55512;50.102;19.958;2022-11-20T09:23:35;98184.40;;;-2.30
68510;BMP180;55512;50.102;19.958;2022-11-20T09:26:13;98180.40;;;-2.30
68510;BMP180;55512;50.102;19.958;2022-11-20T09:28:39;98184.00;;;-2.30
68510;BMP180;55512;50.102;19.958;2022-11-20T09:31:17;98185.40;;;-2.28
68510;BMP180;55512;50.102;19.958;2022-11-20T09:33:44;98188.20;;;-2.20
68510;BMP180;55512;50.102;19.958;2022-11-20T09:36:10;98188.20;;;-2.10
68510;BMP180;55512;50.102;19.958;2022-11-20T09:38:35;98192.00;;;-2.10
68510;BMP180;55512;50.102;19.958;2022-11-20T09:41:06;98189.60;;;-2.04
68510;BMP180;55512;50.102;19.958;2022-11-20T09:43:58;98196.40;;;-2.00
68510;BMP180;55512;50.102;19.958;2022-11-20T09:46:57;98195.80;;;-2.00
68510;BMP180;55512;50.102;19.958;2022-11-20T09:49:42;98186.20;;;-1.90
68510;BMP180;55512;50.102;19.958;2022-11-20T09:52:41;98189.80;;;-1.88
68510;BMP180;55512;50.102;19.958;2022-11-20T09:55:13;98183.60;;;-1.80
68510;BMP180;55512;50.102;19.958;2022-11-20T09:57:46;98174.20;;;-1.70
68510;BMP180;55512;50.102;19.958;2022-11-20T10:00:15;98173.40;;;-1.64
68510;BMP180;55512;50.102;19.958;2022-11-20T10:05:25;98179.40;;;-1.50
68510;BMP180;55512;50.102;19.958;2022-11-20T10:10:34;98194.60;;;-1.30
68510;BMP180;55512;50.102;19.958;2022-11-20T10:16:13;98198.00;;;-1.22
68510;BMP180;55512;50.102;19.958;2022-11-20T10:28:34;98190.20;;;-1.00
68510;BMP180;55512;50.102;19.958;2022-11-20T10:31:12;98186.80;;;-1.00
68510;BMP180;55512;50.102;19.958;2022-11-20T10:33:44;98186.60;;;-0.90
68510;BMP180;55512;50.102;19.958;2022-11-20T10:36:23;98184.60;;;-0.90
68510;BMP180;55512;50.102;19.958;2022-11-20T10:39:10;98181.00;;;-0.80
68510;BMP180;55512;50.102;19.958;2022-11-20T10:41:41;98179.00;;;-0.70
68510;BMP180;55512;50.102;19.958;2022-11-20T10:44:28;98178.80;;;-0.60
68510;BMP180;55512;50.102;19.958;2022-11-20T10:47:16;98172.80;;;-0.50
68510;BMP180;55512;50.102;19.958;2022-11-20T10:49:48;98167.80;;;-0.40
68510;BMP180;55512;50.102;19.958;2022-11-20T11:00:09;98154.60;;;-0.10
68510;BMP180;55512;50.102;19.958;2022-11-20T11:02:54;98151.60;;;0.00
68510;BMP180;55512;50.102;19.958;2022-11-20T11:05:41;98155.20;;;0.10
68510;BMP180;55512;50.102;19.958;2022-11-20T11:08:17;98147.20;;;0.10
68510;BMP180;55512;50.102;19.958;2022-11-20T11:10:58;98141.60;;;0.08
68510;BMP180;55512;50.102;19.958;2022-11-20T11:13:28;98136.20;;;0.10
68510;BMP180;55512;50.102;19.958;2022-11-20T11:15:55;98138.40;;;0.10
68510;BMP180;55512;50.102;19.958;2022-11-20T11:18:29;98135.60;;;0.20
68510;BMP180;55512;50.102;19.958;2022-11-20T11:20:57;98131.40;;;0.30
68510;BMP180;55512;50.102;19.958;2022-11-20T11:26:02;98122.40;;;0.40
68510;BMP180;55512;50.102;19.958;2022-11-20T11:28:29;98122.40;;;0.40
68510;BMP180;55512;50.102;19.958;2022-11-20T11:30:55;98119.60;;;0.50
68510;BMP180;55512;50.102;19.958;2022-11-20T11:33:29;98124.80;;;0.50
68510;BMP180;55512;50.102;19.958;2022-11-20T11:35:59;98126.20;;;0.60
68510;BMP180;55512;50.102;19.958;2022-11-20T11:38:35;98118.80;;;0.64
68510;BMP180;55512;50.102;19.958;2022-11-20T11:41:03;98128.40;;;0.70
68510;BMP180;55512;50.102;19.958;2022-11-20T11:43:33;98126.00;;;0.70
68510;BMP180;55512;50.102;19.958;2022-11-20T11:46:39;98120.60;;;0.72
68510;BMP180;55512;50.102;19.958;2022-11-20T11:54:50;98105.60;;;0.80
68510;BMP180;55512;50.102;19.958;2022-11-20T11:57:42;98100.00;;;0.80
68510;BMP180;55512;50.102;19.958;2022-11-20T12:00:17;98096.00;;;0.80
68510;BMP180;55512;50.102;19.958;2022-11-20T12:11:06;98092.60;;;1.00
68510;BMP180;55512;50.102;19.958;2022-11-20T12:13:44;98095.00;;;1.10
68510;BMP180;55512;50.102;19.958;2022-11-20T12:16:18;98094.00;;;1.10
68510;BMP180;55512;50.102;19.958;2022-11-20T12:18:49;98089.60;;;1.04
68510;BMP180;55512;50.102;19.958;2022-11-20T12:33:08;98099.60;;;1.00
68510;BMP180;55512;50.102;19.958;2022-11-20T12:36:27;98095.80;;;1.00
68510;BMP180;55512;50.102;19.958;2022-11-20T12:39:16;98098.20;;;0.98
68510;BMP180;55512;50.102;19.958;2022-11-20T12:42:50;98093.20;;;0.92
68510;BMP180;55512;50.102;19.958;2022-11-20T12:56:52;98081.20;;;1.10
68510;BMP180;55512;50.102;19.958;2022-11-20T13:05:53;98075.00;;;1.20
68510;BMP180;55512;50.102;19.958;2022-11-20T13:08:26;98066.60;;;1.20
68510;BMP180;55512;50.102;19.958;2022-11-20T13:11:05;98057.20;;;1.20
68510;BMP180;55512;50.102;19.958;2022-11-20T13:13:40;98057.00;;;1.18
68510;BMP180;55512;50.102;19.958;2022-11-20T13:16:17;98048.40;;;1.20
68510;BMP180;55512;50.102;19.958;2022-11-20T13:18:45;98056.80;;;1.20
68510;BMP180;55512;50.102;19.958;2022-11-20T13:24:29;98065.40;;;1.20
68510;BMP180;55512;50.102;19.958;2022-11-20T13:29:27;98045.20;;;1.20
68510;BMP180;55512;50.102;19.958;2022-11-20T13:34:29;98039.40;;;1.30
68510;BMP180;55512;50.102;19.958;2022-11-20T13:36:58;98031.80;;;1.40
68510;BMP180;55512;50.102;19.958;2022-11-20T13:39:36;98016.80;;;1.60
68510;BMP180;55512;50.102;19.958;2022-11-20T13:44:45;98015.40;;;1.80
68510;BMP180;55512;50.102;19.958;2022-11-20T13:47:24;98024.20;;;1.90
68510;BMP180;55512;50.102;19.958;2022-11-20T13:49:51;98024.40;;;2.00
68510;BMP180;55512;50.102;19.958;2022-11-20T14:00:54;98026.60;;;2.12
68510;BMP180;55512;50.102;19.958;2022-11-20T14:03:29;98026.20;;;2.10
68510;BMP180;55512;50.102;19.958;2022-11-20T14:06:02;98032.40;;;2.02
68510;BMP180;55512;50.102;19.958;2022-11-20T14:08:39;98038.00;;;2.00
68510;BMP180;55512;50.102;19.958;2022-11-20T14:11:14;98035.40;;;1.82
68510;BMP180;55512;50.102;19.958;2022-11-20T14:14:15;98034.00;;;1.80
68510;BMP180;55512;50.102;19.958;2022-11-20T14:16:42;98031.40;;;1.80
68510;BMP180;55512;50.102;19.958;2022-11-20T14:22:06;98032.40;;;1.86
68510;BMP180;55512;50.102;19.958;2022-11-20T14:24:31;98013.80;;;1.90
68510;BMP180;55512;50.102;19.958;2022-11-20T14:26:57;98014.20;;;1.90
68510;BMP180;55512;50.102;19.958;2022-11-20T14:29:44;98010.20;;;1.90
68510;BMP180;55512;50.102;19.958;2022-11-20T14:32:11;98002.00;;;1.80
68510;BMP180;55512;50.102;19.958;2022-11-20T14:34:44;97998.80;;;1.70
68510;BMP180;55512;50.102;19.958;2022-11-20T14:37:16;98002.60;;;1.56
68510;BMP180;55512;50.102;19.958;2022-11-20T14:39:50;98000.40;;;1.40
68510;BMP180;55512;50.102;19.958;2022-11-20T14:42:26;98000.40;;;1.30
68510;BMP180;55512;50.102;19.958;2022-11-20T14:44:58;98000.80;;;1.18
68510;BMP180;55512;50.102;19.958;2022-11-20T14:47:28;97998.00;;;1.00
68510;BMP180;55512;50.102;19.958;2022-11-20T14:49:55;97995.20;;;0.90
68510;BMP180;55512;50.102;19.958;2022-11-20T14:52:25;97991.60;;;0.78
68510;BMP180;55512;50.102;19.958;2022-11-20T14:54:57;97991.00;;;0.60
68510;BMP180;55512;50.102;19.958;2022-11-20T14:57:32;97989.80;;;0.56
68510;BMP180;55512;50.102;19.958;2022-11-20T15:00:28;97982.60;;;0.50
68510;BMP180;55512;50.102;19.958;2022-11-20T15:02:54;97987.80;;;0.40
68510;BMP180;55512;50.102;19.958;2022-11-20T15:05:25;97985.60;;;0.30
68510;BMP180;55512;50.102;19.958;2022-11-20T15:08:06;97978.60;;;0.22
68510;BMP180;55512;50.102;19.958;2022-11-20T15:10:32;97983.60;;;0.10
68510;BMP180;55512;50.102;19.958;2022-11-20T15:13:18;97982.00;;;0.04
68510;BMP180;55512;50.102;19.958;2022-11-20T15:15:51;97981.40;;;-0.10
68510;BMP180;55512;50.102;19.958;2022-11-20T15:18:23;97978.80;;;-0.20
68510;BMP180;55512;50.102;19.958;2022-11-20T15:20:52;97969.40;;;-0.24
68510;BMP180;55512;50.102;19.958;2022-11-20T15:23:19;97973.00;;;-0.30
68510;BMP180;55512;50.102;19.958;2022-11-20T15:25:47;97966.80;;;-0.40
68510;BMP180;55512;50.102;19.958;2022-11-20T15:28:23;97970.80;;;-0.50
68510;BMP180;55512;50.102;19.958;2022-11-20T15:30:50;97972.00;;;-0.50
68510;BMP180;55512;50.102;19.958;2022-11-20T15:33:17;97972.40;;;-0.60
68510;BMP180;55512;50.102;19.958;2022-11-20T15:35:43;97977.60;;;-0.60
68510;BMP180;55512;50.102;19.958;2022-11-20T15:38:09;97973.60;;;-0.62
68510;BMP180;55512;50.102;19.958;2022-11-20T15:40:35;97974.20;;;-0.64
68510;BMP180;55512;50.102;19.958;2022-11-20T15:43:00;97966.80;;;-0.62
68510;BMP180;55512;50.102;19.958;2022-11-20T15:45:58;97964.00;;;-0.60
68510;BMP180;55512;50.102;19.958;2022-11-20T15:48:28;97953.20;;;-0.56
68510;BMP180;55512;50.102;19.958;2022-11-20T15:53:37;97958.20;;;-0.50
68510;BMP180;55512;50.102;19.958;2022-11-20T15:56:03;97960.80;;;-0.50
68510;BMP180;55512;50.102;19.958;2022-11-20T15:58:29;97961.80;;;-0.44